N0TRB Weather Reports


Display with metric or nautical units.
time (UTC)temp
F
wind
direction
speed
MPH
gust
MPH
rain 1hr
in
rain 24hr
in
rain mn
in
humidity
%
barometer
mb
20240722150023 75 171 0.0 0.0 0.00 0.16 0.01 83 1015.0
20240722144521 72 171 0.0 1.0 0.00 0.16 0.01 88 1015.1
20240722143010 71 161 0.0 0.0 0.00 0.16 0.01 92 1015.1
20240722141517 70 161 0.0 0.0 0.00 0.16 0.01 93 1015.3
20240722140004 69 161 0.0 0.0 0.00 0.16 0.01 95 1015.4
20240722134502 69 150 0.0 0.0 0.00 0.30 0.01 95 1015.4
20240722133100 68 150 0.0 0.0 0.00 0.30 0.01 96 1015.3
20240722131558 67 150 0.0 0.0 0.00 0.30 0.01 96 1015.3
20240722130058 67 150 0.0 0.0 0.00 0.30 0.01 96 1015.3
20240722124557 67 150 0.0 0.0 0.00 0.30 0.01 96 1015.3
20240722123056 66 150 0.0 0.0 0.00 0.30 0.01 96 1015.4
20240722121555 66 150 0.0 0.0 0.01 0.30 0.01 96 1015.4
20240722120115 65 150 0.0 0.0 0.01 0.30 0.01 96 1015.4
20240722114605 65 150 0.0 0.0 0.01 0.30 0.01 96 1015.3
20240722113054 65 150 0.0 0.0 0.01 0.30 0.01 96 1015.4
20240722111552 65 150 0.0 0.0 0.00 0.28 0.00 96 1015.7
20240722110053 64 150 0.0 0.0 0.00 0.28 0.00 95 1015.6
20240722104556 65 150 0.0 0.0 0.00 0.28 0.00 95 1015.7
20240722103059 65 150 0.0 0.0 0.00 0.28 0.00 95 1015.6
20240722101548 65 150 0.0 0.0 0.00 0.28 0.00 95 1015.4
20240722100051 65 150 0.0 0.0 0.00 0.28 0.00 95 1015.4
20240722094558 65 150 0.0 0.0 0.00 0.28 0.00 95 1015.5
20240722093044 65 150 0.0 0.0 0.00 0.28 0.00 95 1015.5
20240722091553 66 150 0.0 0.0 0.00 0.28 0.00 95 1015.7
20240722090042 66 150 0.0 0.0 0.00 0.28 0.00 95 1015.9
20240722084541 66 150 0.0 0.0 0.00 0.28 0.00 95 1015.9
20240722083045 66 150 0.0 0.0 0.00 0.28 0.00 95 1015.9
20240722081615 66 150 0.0 0.0 0.00 0.28 0.00 95 1015.9
20240722080040 66 150 0.0 0.0 0.00 0.28 0.00 95 1016.0
20240722074537 66 150 0.0 0.0 0.00 0.28 0.00 95 1016.1
20240722073045 66 150 0.0 0.0 0.00 0.28 0.00 95 1016.0
20240722071550 67 150 0.0 0.0 0.00 0.28 0.00 95 1016.1
20240722070032 67 150 0.0 0.0 0.00 0.28 0.00 95 1016.2
20240722064531 67 147 0.0 0.0 0.00 0.28 0.00 95 1016.5
20240722063129 67 148 0.0 0.0 0.00 0.28 0.00 95 1016.5
20240722061527 67 148 0.0 0.0 0.00 0.28 0.00 95 1016.6
20240722060031 67 148 0.0 0.0 0.00 0.28 0.00 95 1016.8
20240722054524 67 148 0.0 0.0 0.00 0.28 0.00 95 1016.9
20240722053039 67 148 0.0 0.0 0.00 0.28 0.00 95 1017.1
20240722051524 67 132 0.0 0.0 0.00 0.28 0.00 94 1017.0
20240722050021 68 133 0.0 0.0 0.00 0.28 0.00 94 1016.9
20240722044522 68 133 0.0 0.0 0.00 0.28 0.28 94 1016.8
20240722043018 68 132 0.0 0.0 0.00 0.28 0.28 94 1016.8
20240722041518 68 132 0.0 0.0 0.01 0.28 0.28 94 1016.8
20240722040020 68 132 0.0 0.0 0.11 0.28 0.28 94 1016.9
20240722034517 69 132 0.0 0.0 0.15 0.28 0.28 93 1016.9
20240722033016 69 132 0.0 0.0 0.15 0.28 0.28 92 1017.0
20240722031529 70 132 0.0 0.0 0.14 0.28 0.28 92 1017.1
20240722030018 71 132 0.0 2.0 0.03 0.17 0.17 91 1017.1
20240722024515 71 144 1.0 5.0 0.00 0.14 0.14 89 1017.2
20240722023016 72 144 1.0 7.0 0.00 0.14 0.14 87 1016.9
20240722021513 73 178 0.0 6.0 0.00 0.14 0.14 84 1016.7
20240722020013 74 219 0.0 1.0 0.00 0.14 0.14 81 1016.7
20240722014520 74 220 0.0 4.0 0.00 0.14 0.14 81 1016.6
20240722013026 75 201 0.0 0.0 0.00 0.14 0.14 81 1016.6
20240722011512 76 201 0.0 5.0 0.00 0.14 0.14 81 1016.6
20240722010012 76 201 0.0 0.0 0.00 0.14 0.14 79 1016.4
20240722004510 77 200 0.0 0.0 0.00 0.14 0.14 80 1016.4
20240722003010 77 199 0.0 1.0 0.00 0.14 0.14 79 1016.3
20240722001516 78 200 0.0 4.0 0.00 0.14 0.14 77 1016.1
20240722000009 78 201 0.0 4.0 0.00 0.14 0.14 78 1016.2
20240721234509 78 199 0.0 5.0 0.00 0.14 0.14 78 1016.1
20240721233008 78 192 0.0 2.0 0.00 0.14 0.14 77 1016.0
20240721231506 80 309 0.0 4.0 0.00 0.14 0.14 74 1016.0
20240721230005 80 311 0.0 0.0 0.00 0.14 0.14 72 1016.2
20240721224502 81 311 0.0 1.0 0.00 0.14 0.14 71 1016.5
20240721223059 81 311 0.0 0.0 0.00 0.14 0.14 74 1016.7
20240721221559 82 311 0.0 0.0 0.00 0.14 0.14 70 1016.9
20240721220058 82 310 0.0 2.0 0.00 0.14 0.14 72 1016.9
20240721214555 81 311 0.0 0.0 0.00 0.14 0.14 72 1017.0
20240721213057 81 310 0.0 4.0 0.00 0.14 0.14 73 1017.1
20240721211552 81 311 0.0 4.0 0.00 0.14 0.14 71 1017.3
20240721210054 81 321 0.0 5.0 0.00 0.14 0.14 74 1017.4
20240721204550 81 320 0.0 4.0 0.00 0.14 0.14 73 1017.7
20240721203052 80 287 0.0 5.0 0.00 0.14 0.14 78 1017.7
20240721201545 79 252 0.0 1.0 0.00 0.14 0.14 75 1017.9
20240721200043 79 250 0.0 4.0 0.00 0.14 0.14 79 1018.1
20240721194540 77 225 0.0 2.0 0.00 0.14 0.14 80 1018.1
20240721193041 77 288 0.0 4.0 0.00 0.14 0.14 79 1018.2
20240721191542 76 260 0.0 2.0 0.00 0.14 0.14 82 1018.2
20240721190030 75 269 0.0 2.0 0.00 0.14 0.14 83 1018.6
20240721184527 74 289 0.0 1.0 0.00 0.14 0.14 83 1018.6
20240721183023 73 148 0.0 0.0 0.00 0.14 0.14 87 1018.8
20240721181520 72 147 0.0 4.0 0.00 0.14 0.14 86 1018.9
20240721180019 72 147 0.0 2.0 0.00 0.14 0.14 87 1018.8
20240721174518 71 204 3.0 8.0 0.00 0.14 0.14 86 1019.0
20240721173018 71 156 4.0 9.0 0.00 0.14 0.14 88 1019.0
20240721171517 71 134 3.0 10.0 0.00 0.14 0.14 88 1019.2
20240721170017 72 132 1.0 8.0 0.00 0.14 0.14 89 1019.2
20240721164519 71 141 0.0 6.0 0.00 0.14 0.14 91 1019.2
20240721163019 71 78 0.0 4.0 0.00 0.14 0.14 94 1019.1
20240721161510 71 88 0.0 4.0 0.00 0.14 0.14 94 1019.0
20240721160009 70 84 0.0 4.0 0.00 0.14 0.14 95 1019.0
20240721154508 69 84 0.0 1.0 0.00 0.14 0.14 95 1018.9
20240721153007 69 85 0.0 0.0 0.00 0.14 0.14 95 1018.8
20240721151506 69 84 0.0 4.0 0.00 0.14 0.14 95 1018.8